createdAt,value
2019-01-04T00:00:36.082Z,11.83
2019-01-04T00:03:06.427Z,15.10
2019-01-04T00:05:42.843Z,20.90
2019-01-04T00:08:13.714Z,14.68
2019-01-04T00:10:44.465Z,17.67
2019-01-04T00:13:14.831Z,11.18
2019-01-04T00:15:46.845Z,11.85
2019-01-04T00:18:16.778Z,18.48
2019-01-04T00:20:46.569Z,17.40
2019-01-04T00:23:17.269Z,15.10
2019-01-04T00:25:49.321Z,9.95
2019-01-04T00:28:25.406Z,9.73
2019-01-04T00:30:55.461Z,10.93
2019-01-04T00:33:26.477Z,13.80
2019-01-04T00:35:57.522Z,11.03
2019-01-04T00:38:27.644Z,13.55
2019-01-04T00:40:57.461Z,18.62
2019-01-04T00:43:28.391Z,10.08
2019-01-04T00:45:58.217Z,14.43
2019-01-04T00:48:28.173Z,16.82
2019-01-04T00:50:59.010Z,17.82
2019-01-04T00:53:28.711Z,12.90
2019-01-04T00:56:35.117Z,14.83
2019-01-04T00:59:17.826Z,22.40
2019-01-04T01:02:14.861Z,14.87
2019-01-04T01:04:51.270Z,14.23
2019-01-04T01:07:36.619Z,21.50
2019-01-04T01:11:04.425Z,20.80
2019-01-04T01:13:55.478Z,12.50
2019-01-04T01:16:50.058Z,19.45
2019-01-04T01:19:48.318Z,17.05
2019-01-04T01:22:31.654Z,12.58
2019-01-04T01:25:21.330Z,14.05
2019-01-04T01:28:10.693Z,11.50
2019-01-04T01:31:17.037Z,12.53
2019-01-04T01:33:59.973Z,12.68
2019-01-04T01:37:08.089Z,19.92
2019-01-04T01:39:48.707Z,21.02
2019-01-04T01:42:32.511Z,13.03
2019-01-04T01:45:25.322Z,18.67
2019-01-04T01:48:03.655Z,15.18
2019-01-04T01:51:13.333Z,16.50
2019-01-04T01:53:50.390Z,16.93
2019-01-04T01:56:20.354Z,13.15
2019-01-04T01:58:51.122Z,21.62
2019-01-04T02:01:21.302Z,25.32
2019-01-04T02:03:53.462Z,17.52
2019-01-04T02:06:23.290Z,19.35
2019-01-04T02:08:58.990Z,12.03
2019-01-04T02:11:29.689Z,15.50
2019-01-04T02:13:59.687Z,28.87
2019-01-04T02:16:29.813Z,26.20
2019-01-04T02:18:59.913Z,14.60
2019-01-04T02:21:30.173Z,13.88
2019-01-04T02:24:00.346Z,17.12
2019-01-04T02:26:32.450Z,18.65
2019-01-04T02:29:02.622Z,18.02
2019-01-04T02:31:32.728Z,20.65
2019-01-04T02:34:08.626Z,15.98
2019-01-04T02:36:40.899Z,17.62
2019-01-04T02:39:15.006Z,19.25
2019-01-04T02:41:45.364Z,18.40
2019-01-04T02:44:17.398Z,20.68
2019-01-04T02:46:53.638Z,19.32
2019-01-04T02:49:23.590Z,26.82
2019-01-04T02:51:55.390Z,23.75
2019-01-04T02:54:25.376Z,27.55
2019-01-04T02:56:55.479Z,15.60
2019-01-04T02:59:25.580Z,22.93
2019-01-04T03:02:01.451Z,17.40
2019-01-04T03:04:31.552Z,17.73
2019-01-04T03:07:03.869Z,11.88
2019-01-04T03:09:43.263Z,21.12
2019-01-04T03:12:14.393Z,17.87
2019-01-04T03:14:44.210Z,16.02
2019-01-04T03:17:15.147Z,15.45
2019-01-04T03:19:45.239Z,13.35
2019-01-04T03:22:15.967Z,18.67
2019-01-04T03:28:16.635Z,22.05
2019-01-04T03:30:48.982Z,17.30
2019-01-04T03:33:20.082Z,13.75
2019-01-04T03:35:58.086Z,19.57
2019-01-04T03:38:28.187Z,17.07
2019-01-04T03:41:01.281Z,23.87
2019-01-04T03:43:37.205Z,13.85
2019-01-04T03:46:07.395Z,30.97
2019-01-04T03:48:37.544Z,16.27
2019-01-04T03:51:07.648Z,36.55
2019-01-04T03:53:37.750Z,16.90
2019-01-04T03:56:07.865Z,19.15
2019-01-04T03:58:37.963Z,18.55
2019-01-04T04:01:08.067Z,14.65
2019-01-04T04:03:38.856Z,25.80
2019-01-04T04:06:08.849Z,23.07
2019-01-04T04:08:38.682Z,24.37
2019-01-04T04:11:08.662Z,19.95
2019-01-04T04:13:38.771Z,23.95
2019-01-04T04:16:08.863Z,20.30
2019-01-04T04:18:38.835Z,19.30
2019-01-04T04:21:08.941Z,16.10
2019-01-04T04:23:40.283Z,19.57
2019-01-04T04:26:10.323Z,20.85
2019-01-04T04:28:41.418Z,20.92
2019-01-04T04:31:11.569Z,18.35
2019-01-04T04:33:42.326Z,23.67
2019-01-04T04:36:12.284Z,23.62
2019-01-04T04:38:42.132Z,21.05
2019-01-04T04:41:13.042Z,20.27
2019-01-04T04:43:43.835Z,25.15
2019-01-04T04:46:13.550Z,22.90
2019-01-04T04:48:43.510Z,28.70
2019-01-04T04:51:13.677Z,20.48
2019-01-04T04:53:55.922Z,21.35
2019-01-04T04:56:29.266Z,21.82
2019-01-04T04:59:07.171Z,22.93
2019-01-04T05:01:45.623Z,22.60
2019-01-04T05:04:15.573Z,26.68
2019-01-04T05:06:45.667Z,24.50
2019-01-04T05:09:15.503Z,24.72
2019-01-04T05:11:45.447Z,21.87
2019-01-04T05:14:15.298Z,17.80
2019-01-04T05:16:45.255Z,30.02
2019-01-04T05:19:15.086Z,21.70
2019-01-04T05:21:45.053Z,28.00
2019-01-04T05:24:15.149Z,25.32
2019-01-04T05:26:46.234Z,25.57
2019-01-04T05:29:17.278Z,24.12
2019-01-04T05:31:47.351Z,22.17
2019-01-04T05:34:19.235Z,25.92
2019-01-04T05:36:49.018Z,23.65
2019-01-04T05:39:19.008Z,32.93
2019-01-04T05:41:48.830Z,25.08
2019-01-04T05:44:18.541Z,34.23
2019-01-04T05:46:48.512Z,31.45
2019-01-04T05:49:18.339Z,26.15
2019-01-04T05:51:48.018Z,22.58
2019-01-04T05:54:17.984Z,37.42
2019-01-04T05:56:49.090Z,31.97
2019-01-04T05:59:18.946Z,23.02
2019-01-04T06:01:48.654Z,27.52
2019-01-04T06:04:18.341Z,28.92
2019-01-04T06:06:48.315Z,21.17
2019-01-04T06:09:18.417Z,25.08
2019-01-04T06:11:48.540Z,28.42
2019-01-04T06:14:18.358Z,19.73
2019-01-04T06:16:48.356Z,16.37
2019-01-04T06:19:18.455Z,22.15
2019-01-04T06:21:48.277Z,26.45
2019-01-04T06:24:17.977Z,30.32
2019-01-04T06:26:47.944Z,24.87
2019-01-04T06:29:17.798Z,31.37
2019-01-04T06:31:47.502Z,30.55
2019-01-04T06:34:17.206Z,22.42
2019-01-04T06:36:47.196Z,27.30
2019-01-04T06:39:17.291Z,20.75
2019-01-04T06:41:47.118Z,28.12
2019-01-04T06:44:16.810Z,33.13
2019-01-04T06:47:07.246Z,22.07
2019-01-04T06:49:37.243Z,22.30
2019-01-04T06:52:08.914Z,23.30
2019-01-04T06:55:21.066Z,23.22
2019-01-04T06:57:50.919Z,21.05
2019-01-04T07:00:20.882Z,25.62
2019-01-04T07:02:50.706Z,21.45
2019-01-04T07:05:20.402Z,24.45
2019-01-04T07:07:50.342Z,24.70
2019-01-04T07:10:20.322Z,30.90
2019-01-04T07:12:50.386Z,20.90
2019-01-04T07:15:20.081Z,27.50
2019-01-04T07:17:49.798Z,25.48
2019-01-04T07:20:20.006Z,24.20
2019-01-04T07:22:51.042Z,20.65
2019-01-04T07:25:20.741Z,24.37
2019-01-04T07:27:51.350Z,22.25
2019-01-04T07:30:21.103Z,24.52
2019-01-04T07:32:58.451Z,25.35
2019-01-04T07:35:37.521Z,30.80
2019-01-04T07:38:09.646Z,27.80
2019-01-04T07:40:40.715Z,19.25
2019-01-04T07:43:16.310Z,28.87
2019-01-04T07:45:45.314Z,30.82
2019-01-04T07:48:15.350Z,28.12
2019-01-04T07:50:50.440Z,31.82
2019-01-04T07:53:20.560Z,22.50
2019-01-04T07:55:50.667Z,24.75
2019-01-04T07:58:20.764Z,31.55
2019-01-04T08:00:51.574Z,28.70
2019-01-04T08:03:31.256Z,23.98
2019-01-04T08:06:01.252Z,27.90
2019-01-04T08:08:31.082Z,30.43
2019-01-04T08:11:07.184Z,25.77
2019-01-04T08:13:37.086Z,30.48
2019-01-04T08:16:09.079Z,29.75
2019-01-04T08:18:39.282Z,23.25
2019-01-04T08:21:09.376Z,23.38
2019-01-04T08:23:39.347Z,26.48
2019-01-04T08:26:09.087Z,26.93
2019-01-04T08:28:39.051Z,27.90
2019-01-04T08:31:09.229Z,24.87
2019-01-04T08:33:39.416Z,25.32
2019-01-04T08:36:11.177Z,30.32
2019-01-04T08:38:46.890Z,26.30
2019-01-04T08:41:16.691Z,25.68
2019-01-04T08:43:47.245Z,26.30
2019-01-04T08:46:19.694Z,22.62
2019-01-04T08:48:49.801Z,17.92
2019-01-04T08:51:19.903Z,24.55
2019-01-04T08:54:00.972Z,20.90
2019-01-04T08:56:32.814Z,21.33
2019-01-04T08:59:02.985Z,22.60
2019-01-04T09:01:33.082Z,27.65
2019-01-04T09:04:03.174Z,27.15
2019-01-04T09:06:33.274Z,21.50
2019-01-04T09:09:03.518Z,34.05
2019-01-04T09:11:40.353Z,38.75
2019-01-04T09:14:11.987Z,26.20
2019-01-04T09:16:41.666Z,25.10
2019-01-04T09:19:12.338Z,23.00
2019-01-04T09:21:42.062Z,22.05
2019-01-04T09:24:13.984Z,23.10
2019-01-04T09:26:44.741Z,22.35
2019-01-04T09:29:14.526Z,27.15
2019-01-04T09:31:52.327Z,20.80
2019-01-04T09:34:22.313Z,23.45
2019-01-04T09:36:52.415Z,26.75
2019-01-04T09:39:29.022Z,29.98
2019-01-04T09:42:01.822Z,23.27
2019-01-04T09:44:32.735Z,17.45
2019-01-04T09:47:04.126Z,19.32
2019-01-04T09:49:35.742Z,26.02
2019-01-04T09:52:07.732Z,20.15
2019-01-04T09:54:37.962Z,21.07
2019-01-04T09:57:07.857Z,22.17
2019-01-04T09:59:37.634Z,25.70
2019-01-04T10:02:08.590Z,23.83
2019-01-04T10:04:39.515Z,21.80
2019-01-04T10:07:12.567Z,23.95
2019-01-04T10:09:42.799Z,16.62
2019-01-04T10:12:12.902Z,20.02
2019-01-04T10:14:42.738Z,21.37
2019-01-04T10:17:14.358Z,26.12
2019-01-04T10:19:44.947Z,14.80
2019-01-04T10:22:17.452Z,25.35
2019-01-04T10:24:47.769Z,19.23
2019-01-04T10:27:17.662Z,19.37
2019-01-04T10:29:47.418Z,21.37
2019-01-04T10:32:18.050Z,19.42
2019-01-04T10:34:47.802Z,20.92
2019-01-04T10:37:17.778Z,21.80
2019-01-04T10:39:47.868Z,15.68
2019-01-04T10:42:17.682Z,12.93
2019-01-04T10:44:47.690Z,19.42
2019-01-04T10:47:17.775Z,17.15
2019-01-04T10:49:47.642Z,19.17
2019-01-04T10:52:17.600Z,13.80
2019-01-04T10:54:53.554Z,17.20
2019-01-04T10:57:29.094Z,20.25
2019-01-04T11:00:13.490Z,25.32
2019-01-04T11:02:43.612Z,18.85
2019-01-04T11:05:15.824Z,15.75
2019-01-04T11:07:48.590Z,19.35
2019-01-04T11:10:20.695Z,18.55
2019-01-04T11:12:50.530Z,11.95
2019-01-04T11:15:20.230Z,17.00
2019-01-04T11:17:49.926Z,13.25
2019-01-04T11:20:38.380Z,14.78
2019-01-04T11:23:31.023Z,17.85
2019-01-04T11:26:23.607Z,12.98
2019-01-04T11:29:28.322Z,19.57
2019-01-04T11:32:17.610Z,11.12
2019-01-04T11:35:02.062Z,22.48
2019-01-04T11:37:43.714Z,17.02
2019-01-04T11:40:52.860Z,16.40
2019-01-04T11:43:41.746Z,18.48
2019-01-04T11:46:14.638Z,25.45
2019-01-04T11:49:05.904Z,15.00
2019-01-04T11:51:44.776Z,15.18
2019-01-04T11:54:16.894Z,11.65
2019-01-04T11:56:46.992Z,20.17
2019-01-04T11:59:17.114Z,11.97
2019-01-04T12:01:46.942Z,10.20
2019-01-04T12:04:22.800Z,13.58
2019-01-04T12:06:53.562Z,17.60
2019-01-04T12:09:23.532Z,18.90
2019-01-04T12:12:00.442Z,10.60
2019-01-04T12:14:30.282Z,11.53
2019-01-04T12:16:59.990Z,10.28
2019-01-04T12:19:29.682Z,11.60
2019-01-04T12:22:00.644Z,10.30
2019-01-04T12:24:30.486Z,18.48
2019-01-04T12:27:00.439Z,14.03
2019-01-04T12:29:30.270Z,16.42
2019-01-04T12:31:59.982Z,11.22
2019-01-04T12:34:29.995Z,11.75
2019-01-04T12:37:00.101Z,15.48
2019-01-04T12:39:30.191Z,12.47
2019-01-04T12:42:01.210Z,12.95
2019-01-04T12:44:37.006Z,9.55
2019-01-04T12:47:06.694Z,14.15
2019-01-04T12:49:37.566Z,13.75
2019-01-04T12:52:15.528Z,20.43
2019-01-04T12:54:46.754Z,15.25
2019-01-04T12:57:16.842Z,14.10
2019-01-04T12:59:48.844Z,16.20
2019-01-04T13:02:18.662Z,15.78
2019-01-04T13:04:48.346Z,15.55
2019-01-04T13:07:26.538Z,16.82
2019-01-04T13:09:56.627Z,18.57
2019-01-04T13:12:26.446Z,13.38
2019-01-04T13:14:57.346Z,24.85
2019-01-04T13:17:30.254Z,16.90
2019-01-04T13:20:00.275Z,12.25
2019-01-04T13:22:34.619Z,11.10
2019-01-04T13:25:05.212Z,11.20
2019-01-04T13:27:35.954Z,17.20
2019-01-04T13:30:06.734Z,14.45
2019-01-04T13:32:36.672Z,11.85
2019-01-04T13:35:08.650Z,17.05
2019-01-04T13:37:38.470Z,15.83
2019-01-04T13:40:08.450Z,16.02
2019-01-04T13:42:38.606Z,15.03
2019-01-04T13:45:10.599Z,14.73
2019-01-04T13:47:46.303Z,16.87
2019-01-04T13:50:16.332Z,15.58
2019-01-04T13:52:46.162Z,14.28
2019-01-04T13:55:15.834Z,15.53
2019-01-04T13:57:48.062Z,17.65
2019-01-04T14:00:18.103Z,13.70
2019-01-04T14:02:49.253Z,16.10
2019-01-04T14:05:19.387Z,11.03
2019-01-04T14:07:49.483Z,25.90
2019-01-04T14:10:23.006Z,19.75
2019-01-04T14:12:55.122Z,13.62
2019-01-04T14:15:25.886Z,14.55
2019-01-04T14:17:58.930Z,16.23
2019-01-04T14:20:29.166Z,10.03
2019-01-04T14:22:59.098Z,9.23
2019-01-04T14:25:28.819Z,20.48
2019-01-04T14:27:59.555Z,16.02
2019-01-04T14:30:35.427Z,12.58
2019-01-04T14:33:05.524Z,10.32
2019-01-04T14:35:35.604Z,13.50
2019-01-04T14:38:09.748Z,12.50
2019-01-04T14:40:39.558Z,10.68
2019-01-04T14:43:16.564Z,11.70
2019-01-04T14:45:46.753Z,16.37
2019-01-04T14:48:16.840Z,9.60
2019-01-04T14:50:46.670Z,16.85
2019-01-04T14:53:16.889Z,14.98
2019-01-04T14:55:48.883Z,11.75
2019-01-04T14:58:18.970Z,29.40
2019-01-04T15:00:52.258Z,32.48
2019-01-04T15:03:25.479Z,13.00
2019-01-04T15:05:58.898Z,12.18
2019-01-04T15:08:28.999Z,13.20
2019-01-04T15:10:59.080Z,18.25
2019-01-04T15:13:34.352Z,13.72
2019-01-04T15:16:06.464Z,18.17
2019-01-04T15:18:38.483Z,18.32
2019-01-04T15:21:08.572Z,15.95
2019-01-04T15:23:40.342Z,15.65
2019-01-04T15:26:10.070Z,14.60
2019-01-04T15:28:42.798Z,12.70
2019-01-04T15:31:19.695Z,14.45
2019-01-04T15:33:49.381Z,16.23
2019-01-04T15:36:20.351Z,13.45
2019-01-04T15:38:53.204Z,18.95
2019-01-04T15:41:24.092Z,18.27
2019-01-04T15:43:54.416Z,21.77
2019-01-04T15:46:32.752Z,14.38
2019-01-04T15:49:10.314Z,13.55
2019-01-04T15:51:40.475Z,19.20
2019-01-04T15:54:10.640Z,17.32
2019-01-04T15:56:42.792Z,17.45
2019-01-04T15:59:20.727Z,14.38
2019-01-04T16:01:50.826Z,15.15
2019-01-04T16:04:20.913Z,22.35
2019-01-04T16:06:51.004Z,20.82
2019-01-04T16:09:23.067Z,26.75
2019-01-04T16:11:54.871Z,17.73
2019-01-04T16:14:24.562Z,22.25
2019-01-04T16:16:54.271Z,20.70
2019-01-04T16:19:26.199Z,20.45
2019-01-04T16:21:57.281Z,12.18
2019-01-04T16:24:33.489Z,26.57
2019-01-04T16:27:03.563Z,19.07
2019-01-04T16:29:37.836Z,20.05
2019-01-04T16:32:10.886Z,18.50
2019-01-04T16:34:40.851Z,19.85
2019-01-04T16:37:10.968Z,17.95
2019-01-04T16:39:41.076Z,16.97
2019-01-04T16:42:11.204Z,18.20
2019-01-04T16:44:41.323Z,18.05
2019-01-04T16:47:11.419Z,20.77
2019-01-04T16:49:41.269Z,21.82
2019-01-04T16:52:11.062Z,19.15
2019-01-04T16:54:41.739Z,25.27
2019-01-04T16:57:11.788Z,22.82
2019-01-04T16:59:42.825Z,22.10
2019-01-04T17:02:12.791Z,19.60
2019-01-04T17:04:43.711Z,24.80
2019-01-04T17:07:15.467Z,19.60
2019-01-04T17:09:46.315Z,17.87
2019-01-04T17:12:17.027Z,15.20
2019-01-04T17:14:52.622Z,20.50
2019-01-04T17:17:22.579Z,28.85
2019-01-04T17:19:54.765Z,23.45
2019-01-04T17:22:25.770Z,21.10
2019-01-04T17:24:56.815Z,24.67
2019-01-04T17:27:26.643Z,25.65
2019-01-04T17:30:09.472Z,22.27
2019-01-04T17:32:40.255Z,23.27
2019-01-04T17:35:09.967Z,23.10
2019-01-04T17:37:39.707Z,28.95
2019-01-04T17:40:17.404Z,26.77
2019-01-04T17:42:48.435Z,31.12
2019-01-04T17:45:22.883Z,24.02
2019-01-04T17:47:52.835Z,30.00
2019-01-04T17:50:24.483Z,28.77
2019-01-04T17:52:54.472Z,25.92
2019-01-04T17:55:26.195Z,20.55
2019-01-04T17:57:56.895Z,21.97
2019-01-04T18:00:28.807Z,20.85
2019-01-04T18:03:01.859Z,25.65
2019-01-04T18:05:32.832Z,33.55
2019-01-04T18:08:02.939Z,25.75
2019-01-04T18:10:32.779Z,31.07
2019-01-04T18:13:02.751Z,23.32
2019-01-04T18:15:32.873Z,27.07
2019-01-04T18:18:03.931Z,26.02
2019-01-04T18:20:35.054Z,23.77
2019-01-04T18:23:04.883Z,24.23
2019-01-04T18:25:37.753Z,26.35
2019-01-04T18:28:13.528Z,28.25
2019-01-04T18:30:43.521Z,28.10
2019-01-04T18:33:14.284Z,25.43
2019-01-04T18:35:46.935Z,31.87
2019-01-04T18:38:16.649Z,49.55
2019-01-04T18:40:46.609Z,32.88
2019-01-04T18:43:23.836Z,28.90
2019-01-04T18:45:53.618Z,29.65
2019-01-04T18:48:24.283Z,24.07
2019-01-04T18:50:55.896Z,35.40
2019-01-04T18:53:26.792Z,26.57
2019-01-04T18:55:57.611Z,33.15
2019-01-04T18:58:27.327Z,28.87
2019-01-04T19:01:00.255Z,31.27
2019-01-04T19:03:32.291Z,31.75
2019-01-04T19:06:02.403Z,26.48
2019-01-04T19:08:32.263Z,32.83
2019-01-04T19:11:02.106Z,19.73
2019-01-04T19:13:32.079Z,34.43
2019-01-04T19:16:01.928Z,32.93
2019-01-04T19:18:31.635Z,55.00
2019-01-04T19:21:02.247Z,37.23
2019-01-04T19:23:39.514Z,40.92
2019-01-04T19:26:07.403Z,53.63
2019-01-04T19:28:37.183Z,60.67
2019-01-04T19:31:07.183Z,38.10
2019-01-04T19:33:36.871Z,53.55
2019-01-04T19:36:07.843Z,86.47
2019-01-04T19:38:39.571Z,35.65
2019-01-04T19:41:11.882Z,25.20
2019-01-04T19:43:42.808Z,30.27
2019-01-04T19:46:12.927Z,20.90
2019-01-04T19:48:42.791Z,25.80
2019-01-04T19:51:13.403Z,35.78
2019-01-04T19:53:44.531Z,28.05
2019-01-04T19:56:15.633Z,22.13
2019-01-04T19:58:46.676Z,26.23
2019-01-04T20:01:19.239Z,25.17
2019-01-04T20:03:49.967Z,28.23
2019-01-04T20:07:04.048Z,23.57
2019-01-04T20:10:28.413Z,43.15
2019-01-04T20:14:10.879Z,42.70
2019-01-04T20:16:47.593Z,39.00
2019-01-04T20:19:44.103Z,33.15
2019-01-04T20:22:30.879Z,27.93
2019-01-04T20:25:18.584Z,25.02
2019-01-04T20:28:07.355Z,24.90
2019-01-04T20:30:50.897Z,37.15
2019-01-04T20:33:46.067Z,25.25
2019-01-04T20:36:33.684Z,23.05
2019-01-04T20:39:13.863Z,24.32
2019-01-04T20:41:45.662Z,24.18
2019-01-04T20:44:20.272Z,23.45
2019-01-04T20:47:00.799Z,30.90
2019-01-04T20:49:50.265Z,27.52
2019-01-04T20:52:23.012Z,27.55
2019-01-04T20:55:12.002Z,23.45
2019-01-04T20:58:04.607Z,30.12
2019-01-04T21:00:41.973Z,25.05
2019-01-04T21:03:25.821Z,24.57
2019-01-04T21:06:13.239Z,23.60
2019-01-04T21:08:53.359Z,22.62
2019-01-04T21:11:31.759Z,30.32
2019-01-04T21:14:16.255Z,26.52
2019-01-04T21:16:57.019Z,29.60
2019-01-04T21:19:29.577Z,26.52
2019-01-04T21:22:07.085Z,23.25
2019-01-04T21:24:55.203Z,19.55
2019-01-04T21:27:43.183Z,36.23
2019-01-04T21:30:33.239Z,25.85
2019-01-04T21:33:22.231Z,27.77
2019-01-04T21:35:58.491Z,27.45
2019-01-04T21:38:47.243Z,28.30
2019-01-04T21:41:19.003Z,27.40
2019-01-04T21:44:11.633Z,30.85
2019-01-04T21:46:44.405Z,30.25
2019-01-04T21:49:18.675Z,21.82
2019-01-04T21:51:58.151Z,29.77
2019-01-04T21:54:32.798Z,29.23
2019-01-04T21:57:21.378Z,29.60
2019-01-04T22:00:11.711Z,28.20
2019-01-04T22:02:43.087Z,24.10
2019-01-04T22:05:20.995Z,21.87
2019-01-04T22:07:58.112Z,25.23
2019-01-04T22:10:35.119Z,33.92
2019-01-04T22:13:15.763Z,24.45
2019-01-04T22:16:08.493Z,23.95
2019-01-04T22:18:42.728Z,20.27
2019-01-04T22:21:17.731Z,24.98
2019-01-04T22:24:12.661Z,24.00
2019-01-04T22:26:53.157Z,19.98
2019-01-04T22:29:30.620Z,24.05
2019-01-04T22:32:11.108Z,25.48
2019-01-04T22:34:46.227Z,21.20
2019-01-04T22:37:26.295Z,20.52
2019-01-04T22:40:06.800Z,17.62
2019-01-04T22:42:55.915Z,24.37
2019-01-04T22:45:30.803Z,19.30
2019-01-04T22:48:18.331Z,22.25
2019-01-04T22:51:06.637Z,24.85
2019-01-04T22:53:50.200Z,23.57
2019-01-04T22:56:34.005Z,18.80
2019-01-04T22:59:17.539Z,22.87
2019-01-04T23:01:58.916Z,21.73
2019-01-04T23:04:33.462Z,23.25
2019-01-04T23:07:22.816Z,28.77
2019-01-04T23:10:09.135Z,19.15
2019-01-04T23:12:55.760Z,20.90
2019-01-04T23:15:27.629Z,24.95
2019-01-04T23:17:59.371Z,24.40
2019-01-04T23:20:46.131Z,20.95
2019-01-04T23:23:17.740Z,23.07
2019-01-04T23:26:04.153Z,22.70
2019-01-04T23:28:45.043Z,19.37
2019-01-04T23:31:34.440Z,24.85
2019-01-04T23:34:08.201Z,23.32
2019-01-04T23:36:54.364Z,20.17
2019-01-04T23:39:46.473Z,19.02
2019-01-04T23:42:35.331Z,22.93
2019-01-04T23:45:22.372Z,22.55
2019-01-04T23:48:09.024Z,18.23
2019-01-04T23:50:41.487Z,20.82
2019-01-04T23:53:19.327Z,22.07
2019-01-04T23:56:07.459Z,24.12
2019-01-04T23:58:55.176Z,21.37
